Capitol, MT

12:30 AM MST on March 03, 2015 (GMT -0700)
Buffalo | Change Station
CLOSE
Current Station
Airport
Location: Buffalo,
Elevation: 3002 ft
Nearby Weather Stations
Active Advisory: Winter Weather Advisory

Elev 3002 ft 45.60 °N, 103.55 °W | Updated 34 minutes ago

Overcast
Overcast
18 °F
Feels Like 0 °F
N
26
Wind Variable Wind from North
Gusts 34 mph

Today
High -- | Low -- °F
--% Chance of Precip.
Yesterday
High -- | Low -- °F
Precip. -- in
6:31 AM 5:46 PM
Waxing Gibbous, 95% visible
Pressure 29.86 in
Visibility -9999.0 miles
Clouds
Windchill 0 °F
Dew Point 10 °F
Humidity 71%
Rainfall 0.00 in
Snow Depth Not available.
UV Not available.
Pollen 1.20 out of 12
Air Quality Not available.
Flu Activity Not available.
METAR K2WX 030656Z AUTO 35023G30KT M08/M12 A2976 RMK AO1 PK WND 35040/0602 PRESRR SLP112 T10781122 400721133

More Conditions Fewer Conditions

Pressure 29.86 in
Visibility -9999.0 miles
Clouds
Windchill 0 °F
Dew Point 10 °F
Humidity 71%
Rainfall 0.00 in
Snow Depth Not available.
UV Not available.
Pollen 1.20 out of 12
Air Quality Not available.
Flu Activity Not available.
METAR K2WX 030656Z AUTO 35023G30KT M08/M12 A2976 RMK AO1 PK WND 35040/0602 PRESRR SLP112 T10781122 400721133

More Conditions Fewer Conditions

10-Day Weather Forecast

Almanac

Astronomy

Mar. 03, 2015 Rise Set
Actual Time
Civil Twilight
Nautical Twilight
Astronomical Twilight
Moon
Length of Visible Light
Length of Day
Tomorrow will be .
, % of the Moon is Illuminated

Today's Extremes

State Highs State Lows

Community

WunderPhotos

Upload Photos

1,802,073 photos uploaded!

WunderBlogs® & News

Nearby

Air Quality

  Air Quality AQ Index Pollutant
Not available.

Snow Depth

Station Depth Elevation

Earthquake Activity

City Distance Mag. Time & Date
Minimum magnitude displayed is 2.5.

Coastal Water Temperatures

Place Temperature

Nearby Weather Stations

Winter Weather Advisory
Statement as of 2:51 PM MST on March 02, 2015

... Winter Weather Advisory remains in effect from 6 PM this
evening to noon MST Tuesday...

A Winter Weather Advisory for snow and blowing snow remains in
effect from 6 PM this evening to noon MST Tuesday.

* Timing... this evening through noon on Tuesday. Most of the
snowfall is expected between 10 PM and 4 am in Billings.

* Impacts... poor travel conditions due to reduced visibility and
slick or snowpacked roadways. This includes Highway 212 and
interstates 90 and 94. The cold and snow will also threaten
Young livestock.

* Winds... north at 15 to 30 mph.

* Snowfall amounts... 1 to 3 inches.

* Wind chill values... 15 to 25 below zero.




Http://weather.Gov/Billings